sensor_id;sensor_type;location;lat;lon;timestamp;temperature;humidity
6118;DHT22;3089;48.202;11.510;2024-02-23T00:02:10;8.50;99.90
6118;DHT22;3089;48.202;11.510;2024-02-23T00:04:38;8.60;99.90
6118;DHT22;3089;48.202;11.510;2024-02-23T00:07:06;8.50;99.90
6118;DHT22;3089;48.202;11.510;2024-02-23T00:09:34;8.50;99.90
6118;DHT22;3089;48.202;11.510;2024-02-23T00:12:04;8.50;99.90
6118;DHT22;3089;48.202;11.510;2024-02-23T00:14:32;8.50;99.90
6118;DHT22;3089;48.202;11.510;2024-02-23T00:17:03;8.50;99.90
6118;DHT22;3089;48.202;11.510;2024-02-23T00:19:31;8.40;99.90
6118;DHT22;3089;48.202;11.510;2024-02-23T00:21:59;8.50;99.90
6118;DHT22;3089;48.202;11.510;2024-02-23T00:24:27;8.40;99.90
6118;DHT22;3089;48.202;11.510;2024-02-23T00:26:55;8.40;99.90
6118;DHT22;3089;48.202;11.510;2024-02-23T00:29:25;8.30;99.90
6118;DHT22;3089;48.202;11.510;2024-02-23T00:31:53;8.40;99.90
6118;DHT22;3089;48.202;11.510;2024-02-23T00:34:21;8.50;99.90
6118;DHT22;3089;48.202;11.510;2024-02-23T00:36:49;8.40;99.90
6118;DHT22;3089;48.202;11.510;2024-02-23T00:39:17;8.40;99.90
6118;DHT22;3089;48.202;11.510;2024-02-23T00:41:45;8.40;99.90
6118;DHT22;3089;48.202;11.510;2024-02-23T00:44:13;8.40;99.90
6118;DHT22;3089;48.202;11.510;2024-02-23T00:46:42;8.30;99.90
6118;DHT22;3089;48.202;11.510;2024-02-23T00:49:10;8.30;99.90
6118;DHT22;3089;48.202;11.510;2024-02-23T00:51:38;8.30;99.90
6118;DHT22;3089;48.202;11.510;2024-02-23T00:54:06;8.30;99.90
6118;DHT22;3089;48.202;11.510;2024-02-23T00:56:35;8.30;99.90
6118;DHT22;3089;48.202;11.510;2024-02-23T00:59:16;8.30;99.90
6118;DHT22;3089;48.202;11.510;2024-02-23T01:01:46;8.30;99.90
6118;DHT22;3089;48.202;11.510;2024-02-23T01:04:14;8.30;99.90
6118;DHT22;3089;48.202;11.510;2024-02-23T01:06:42;8.30;99.90
6118;DHT22;3089;48.202;11.510;2024-02-23T01:09:10;8.30;99.90
6118;DHT22;3089;48.202;11.510;2024-02-23T01:11:38;8.20;99.90
6118;DHT22;3089;48.202;11.510;2024-02-23T01:14:06;8.30;99.90
6118;DHT22;3089;48.202;11.510;2024-02-23T01:16:34;8.30;99.90
6118;DHT22;3089;48.202;11.510;2024-02-23T01:19:03;8.30;99.90
6118;DHT22;3089;48.202;11.510;2024-02-23T01:21:31;8.20;99.90
6118;DHT22;3089;48.202;11.510;2024-02-23T01:23:59;8.30;99.90
6118;DHT22;3089;48.202;11.510;2024-02-23T01:26:27;8.20;99.90
6118;DHT22;3089;48.202;11.510;2024-02-23T01:28:55;8.20;99.90
6118;DHT22;3089;48.202;11.510;2024-02-23T01:31:23;8.20;99.90
6118;DHT22;3089;48.202;11.510;2024-02-23T01:33:51;8.20;99.90
6118;DHT22;3089;48.202;11.510;2024-02-23T01:36:21;8.20;99.90
6118;DHT22;3089;48.202;11.510;2024-02-23T01:38:49;8.20;99.90
6118;DHT22;3089;48.202;11.510;2024-02-23T01:41:17;8.00;99.90
6118;DHT22;3089;48.202;11.510;2024-02-23T01:43:45;8.10;99.90
6118;DHT22;3089;48.202;11.510;2024-02-23T01:46:13;8.00;99.90
6118;DHT22;3089;48.202;11.510;2024-02-23T01:48:45;8.00;99.90
6118;DHT22;3089;48.202;11.510;2024-02-23T01:51:13;8.00;99.90
6118;DHT22;3089;48.202;11.510;2024-02-23T01:53:43;8.00;99.90
6118;DHT22;3089;48.202;11.510;2024-02-23T01:56:12;8.00;99.90
6118;DHT22;3089;48.202;11.510;2024-02-23T01:58:46;8.00;99.90
6118;DHT22;3089;48.202;11.510;2024-02-23T02:01:14;8.00;99.90
6118;DHT22;3089;48.202;11.510;2024-02-23T02:03:43;7.90;99.90
6118;DHT22;3089;48.202;11.510;2024-02-23T02:06:11;8.00;99.90
6118;DHT22;3089;48.202;11.510;2024-02-23T02:08:40;8.00;99.90
6118;DHT22;3089;48.202;11.510;2024-02-23T02:11:09;8.00;99.90
6118;DHT22;3089;48.202;11.510;2024-02-23T02:13:37;7.90;99.90
6118;DHT22;3089;48.202;11.510;2024-02-23T02:16:05;7.90;99.90
6118;DHT22;3089;48.202;11.510;2024-02-23T02:18:34;8.00;99.90
6118;DHT22;3089;48.202;11.510;2024-02-23T02:21:02;7.90;99.90
6118;DHT22;3089;48.202;11.510;2024-02-23T02:23:30;7.90;99.90
6118;DHT22;3089;48.202;11.510;2024-02-23T02:25:58;7.90;99.90
6118;DHT22;3089;48.202;11.510;2024-02-23T02:28:28;7.80;99.90
6118;DHT22;3089;48.202;11.510;2024-02-23T02:30:56;7.90;99.90
6118;DHT22;3089;48.202;11.510;2024-02-23T02:33:24;7.80;99.90
6118;DHT22;3089;48.202;11.510;2024-02-23T02:35:52;7.80;99.90
6118;DHT22;3089;48.202;11.510;2024-02-23T02:38:20;7.80;99.90
6118;DHT22;3089;48.202;11.510;2024-02-23T02:40:48;7.70;99.90
6118;DHT22;3089;48.202;11.510;2024-02-23T02:43:16;7.70;99.90
6118;DHT22;3089;48.202;11.510;2024-02-23T02:45:46;7.80;99.90
6118;DHT22;3089;48.202;11.510;2024-02-23T02:48:14;7.90;99.90
6118;DHT22;3089;48.202;11.510;2024-02-23T02:50:42;7.80;99.90
6118;DHT22;3089;48.202;11.510;2024-02-23T02:53:10;7.80;99.90
6118;DHT22;3089;48.202;11.510;2024-02-23T02:55:41;7.70;99.90
6118;DHT22;3089;48.202;11.510;2024-02-23T02:58:10;7.70;99.90
6118;DHT22;3089;48.202;11.510;2024-02-23T03:00:39;7.70;99.90
6118;DHT22;3089;48.202;11.510;2024-02-23T03:03:08;7.70;99.90
6118;DHT22;3089;48.202;11.510;2024-02-23T03:05:36;7.70;99.90
6118;DHT22;3089;48.202;11.510;2024-02-23T03:08:05;7.60;99.90
6118;DHT22;3089;48.202;11.510;2024-02-23T03:10:33;7.60;99.90
6118;DHT22;3089;48.202;11.510;2024-02-23T03:13:01;7.70;99.90
6118;DHT22;3089;48.202;11.510;2024-02-23T03:15:29;7.60;99.90
6118;DHT22;3089;48.202;11.510;2024-02-23T03:17:57;7.70;99.90
6118;DHT22;3089;48.202;11.510;2024-02-23T03:20:26;7.60;99.90
6118;DHT22;3089;48.202;11.510;2024-02-23T03:22:54;7.60;99.90
6118;DHT22;3089;48.202;11.510;2024-02-23T03:25:22;7.60;99.90
6118;DHT22;3089;48.202;11.510;2024-02-23T03:27:50;7.60;99.90
6118;DHT22;3089;48.202;11.510;2024-02-23T03:30:18;7.60;99.90
6118;DHT22;3089;48.202;11.510;2024-02-23T03:32:46;7.60;99.90
6118;DHT22;3089;48.202;11.510;2024-02-23T03:35:14;7.60;99.90
6118;DHT22;3089;48.202;11.510;2024-02-23T03:37:43;7.50;99.90
6118;DHT22;3089;48.202;11.510;2024-02-23T03:40:12;7.60;99.90
6118;DHT22;3089;48.202;11.510;2024-02-23T03:42:40;7.50;99.90
6118;DHT22;3089;48.202;11.510;2024-02-23T03:45:08;7.30;99.90
6118;DHT22;3089;48.202;11.510;2024-02-23T03:47:36;7.30;99.90
6118;DHT22;3089;48.202;11.510;2024-02-23T03:50:05;7.20;99.90
6118;DHT22;3089;48.202;11.510;2024-02-23T03:52:34;7.10;99.90
6118;DHT22;3089;48.202;11.510;2024-02-23T03:55:04;7.20;99.90
6118;DHT22;3089;48.202;11.510;2024-02-23T03:57:32;7.20;99.90
6118;DHT22;3089;48.202;11.510;2024-02-23T04:00:00;7.10;99.90
6118;DHT22;3089;48.202;11.510;2024-02-23T04:02:28;7.00;99.90
6118;DHT22;3089;48.202;11.510;2024-02-23T04:04:56;7.00;99.90
6118;DHT22;3089;48.202;11.510;2024-02-23T04:07:24;7.20;99.90
6118;DHT22;3089;48.202;11.510;2024-02-23T04:09:52;7.10;99.90
6118;DHT22;3089;48.202;11.510;2024-02-23T04:12:23;7.20;99.90
6118;DHT22;3089;48.202;11.510;2024-02-23T04:14:51;7.20;99.90
6118;DHT22;3089;48.202;11.510;2024-02-23T04:17:19;7.20;99.90
6118;DHT22;3089;48.202;11.510;2024-02-23T04:19:46;7.20;99.90
6118;DHT22;3089;48.202;11.510;2024-02-23T04:22:15;7.20;99.90
6118;DHT22;3089;48.202;11.510;2024-02-23T04:24:43;7.20;99.90
6118;DHT22;3089;48.202;11.510;2024-02-23T04:27:11;7.10;99.90
6118;DHT22;3089;48.202;11.510;2024-02-23T04:29:40;7.10;99.90
6118;DHT22;3089;48.202;11.510;2024-02-23T04:32:08;7.20;99.90
6118;DHT22;3089;48.202;11.510;2024-02-23T04:34:36;7.20;99.90
6118;DHT22;3089;48.202;11.510;2024-02-23T04:37:04;7.20;99.90
6118;DHT22;3089;48.202;11.510;2024-02-23T04:39:32;7.20;99.90
6118;DHT22;3089;48.202;11.510;2024-02-23T04:42:00;7.20;99.90
6118;DHT22;3089;48.202;11.510;2024-02-23T04:44:29;7.10;99.90
6118;DHT22;3089;48.202;11.510;2024-02-23T04:46:58;7.00;99.90
6118;DHT22;3089;48.202;11.510;2024-02-23T04:49:26;7.10;99.90
6118;DHT22;3089;48.202;11.510;2024-02-23T04:51:54;7.20;99.90
6118;DHT22;3089;48.202;11.510;2024-02-23T04:54:22;7.20;99.90
6118;DHT22;3089;48.202;11.510;2024-02-23T04:56:50;7.20;99.90
6118;DHT22;3089;48.202;11.510;2024-02-23T04:59:18;7.10;99.90
6118;DHT22;3089;48.202;11.510;2024-02-23T05:01:46;7.10;99.90
6118;DHT22;3089;48.202;11.510;2024-02-23T05:04:16;7.10;99.90
6118;DHT22;3089;48.202;11.510;2024-02-23T05:06:43;7.00;99.90
6118;DHT22;3089;48.202;11.510;2024-02-23T05:09:12;7.00;99.90
6118;DHT22;3089;48.202;11.510;2024-02-23T05:11:40;7.00;99.90
6118;DHT22;3089;48.202;11.510;2024-02-23T05:14:08;7.00;99.90
6118;DHT22;3089;48.202;11.510;2024-02-23T05:16:36;7.00;99.90
6118;DHT22;3089;48.202;11.510;2024-02-23T05:19:04;7.00;99.90
6118;DHT22;3089;48.202;11.510;2024-02-23T05:21:33;7.00;99.90
6118;DHT22;3089;48.202;11.510;2024-02-23T05:24:01;6.90;99.90
6118;DHT22;3089;48.202;11.510;2024-02-23T05:26:29;6.90;99.90
6118;DHT22;3089;48.202;11.510;2024-02-23T05:28:57;7.00;99.90
6118;DHT22;3089;48.202;11.510;2024-02-23T05:31:44;6.90;99.90
6118;DHT22;3089;48.202;11.510;2024-02-23T05:34:12;6.90;99.90
6118;DHT22;3089;48.202;11.510;2024-02-23T05:36:42;6.90;99.90
6118;DHT22;3089;48.202;11.510;2024-02-23T05:39:10;6.90;99.90
6118;DHT22;3089;48.202;11.510;2024-02-23T05:41:39;6.90;99.90
6118;DHT22;3089;48.202;11.510;2024-02-23T05:44:07;6.90;99.90
6118;DHT22;3089;48.202;11.510;2024-02-23T05:46:36;6.70;99.90
6118;DHT22;3089;48.202;11.510;2024-02-23T05:49:04;6.80;99.90
6118;DHT22;3089;48.202;11.510;2024-02-23T05:51:32;6.70;99.90
6118;DHT22;3089;48.202;11.510;2024-02-23T05:54:03;6.60;99.90
6118;DHT22;3089;48.202;11.510;2024-02-23T05:56:31;6.60;99.90
6118;DHT22;3089;48.202;11.510;2024-02-23T05:58:59;6.70;99.90
6118;DHT22;3089;48.202;11.510;2024-02-23T06:01:27;6.70;99.90
6118;DHT22;3089;48.202;11.510;2024-02-23T06:03:55;6.70;99.90
6118;DHT22;3089;48.202;11.510;2024-02-23T06:06:23;6.70;99.90
6118;DHT22;3089;48.202;11.510;2024-02-23T06:08:51;6.70;99.90
6118;DHT22;3089;48.202;11.510;2024-02-23T06:11:20;6.80;99.90
6118;DHT22;3089;48.202;11.510;2024-02-23T06:13:48;6.70;99.90
6118;DHT22;3089;48.202;11.510;2024-02-23T06:16:16;6.60;99.90
6118;DHT22;3089;48.202;11.510;2024-02-23T06:18:44;6.60;99.90
6118;DHT22;3089;48.202;11.510;2024-02-23T06:21:13;6.60;99.90
6118;DHT22;3089;48.202;11.510;2024-02-23T06:23:41;6.70;99.90
6118;DHT22;3089;48.202;11.510;2024-02-23T06:26:09;6.70;99.90
6118;DHT22;3089;48.202;11.510;2024-02-23T06:28:39;6.70;99.90
6118;DHT22;3089;48.202;11.510;2024-02-23T06:31:09;6.80;99.90
6118;DHT22;3089;48.202;11.510;2024-02-23T06:33:37;6.60;99.90
6118;DHT22;3089;48.202;11.510;2024-02-23T06:36:06;6.70;99.90
6118;DHT22;3089;48.202;11.510;2024-02-23T06:38:34;6.70;99.90
6118;DHT22;3089;48.202;11.510;2024-02-23T06:41:03;6.70;99.90
6118;DHT22;3089;48.202;11.510;2024-02-23T06:43:31;6.70;99.90
6118;DHT22;3089;48.202;11.510;2024-02-23T06:46:04;6.60;99.90
6118;DHT22;3089;48.202;11.510;2024-02-23T06:48:32;6.60;99.90
6118;DHT22;3089;48.202;11.510;2024-02-23T06:51:01;6.60;99.90
6118;DHT22;3089;48.202;11.510;2024-02-23T06:53:29;6.60;99.90
6118;DHT22;3089;48.202;11.510;2024-02-23T06:55:58;6.60;99.90
6118;DHT22;3089;48.202;11.510;2024-02-23T06:58:27;6.50;99.90
6118;DHT22;3089;48.202;11.510;2024-02-23T07:00:55;6.50;99.90
6118;DHT22;3089;48.202;11.510;2024-02-23T07:03:25;6.60;99.90
6118;DHT22;3089;48.202;11.510;2024-02-23T07:05:53;6.60;99.90
6118;DHT22;3089;48.202;11.510;2024-02-23T07:08:22;6.60;99.90
6118;DHT22;3089;48.202;11.510;2024-02-23T07:10:50;6.60;99.90
6118;DHT22;3089;48.202;11.510;2024-02-23T07:13:18;6.50;99.90
6118;DHT22;3089;48.202;11.510;2024-02-23T07:15:46;6.50;99.90
6118;DHT22;3089;48.202;11.510;2024-02-23T07:18:15;6.50;99.90
6118;DHT22;3089;48.202;11.510;2024-02-23T07:20:44;6.60;99.90
6118;DHT22;3089;48.202;11.510;2024-02-23T07:23:12;6.60;99.90
6118;DHT22;3089;48.202;11.510;2024-02-23T07:25:43;6.50;99.90
6118;DHT22;3089;48.202;11.510;2024-02-23T07:28:11;6.50;99.90
6118;DHT22;3089;48.202;11.510;2024-02-23T07:30:38;6.50;99.90
6118;DHT22;3089;48.202;11.510;2024-02-23T07:33:06;6.50;99.90
6118;DHT22;3089;48.202;11.510;2024-02-23T07:35:34;6.40;99.90
6118;DHT22;3089;48.202;11.510;2024-02-23T07:38:04;6.50;99.90
6118;DHT22;3089;48.202;11.510;2024-02-23T07:40:32;6.50;99.90
6118;DHT22;3089;48.202;11.510;2024-02-23T07:43:00;6.50;99.90
6118;DHT22;3089;48.202;11.510;2024-02-23T07:45:28;6.50;99.90
6118;DHT22;3089;48.202;11.510;2024-02-23T07:47:56;6.40;99.90
6118;DHT22;3089;48.202;11.510;2024-02-23T07:50:24;6.40;99.90
6118;DHT22;3089;48.202;11.510;2024-02-23T07:52:52;6.40;99.90
6118;DHT22;3089;48.202;11.510;2024-02-23T07:55:22;6.50;99.90
6118;DHT22;3089;48.202;11.510;2024-02-23T07:57:49;6.50;99.90
6118;DHT22;3089;48.202;11.510;2024-02-23T08:00:18;6.50;99.90
6118;DHT22;3089;48.202;11.510;2024-02-23T08:02:46;6.50;99.90
6118;DHT22;3089;48.202;11.510;2024-02-23T08:05:14;6.50;99.90
6118;DHT22;3089;48.202;11.510;2024-02-23T08:07:42;6.50;99.90
6118;DHT22;3089;48.202;11.510;2024-02-23T08:10:11;6.50;99.90
6118;DHT22;3089;48.202;11.510;2024-02-23T08:12:41;6.40;99.90
6118;DHT22;3089;48.202;11.510;2024-02-23T08:15:09;6.30;99.90
6118;DHT22;3089;48.202;11.510;2024-02-23T08:17:38;6.10;99.90
6118;DHT22;3089;48.202;11.510;2024-02-23T08:20:06;6.30;99.90
6118;DHT22;3089;48.202;11.510;2024-02-23T08:22:35;6.40;99.90
6118;DHT22;3089;48.202;11.510;2024-02-23T08:25:04;6.50;99.90
6118;DHT22;3089;48.202;11.510;2024-02-23T08:27:32;6.40;99.90
6118;DHT22;3089;48.202;11.510;2024-02-23T08:30:01;6.40;99.90
6118;DHT22;3089;48.202;11.510;2024-02-23T08:32:29;6.50;99.90
6118;DHT22;3089;48.202;11.510;2024-02-23T08:34:57;6.50;99.90
6118;DHT22;3089;48.202;11.510;2024-02-23T08:37:27;6.60;99.90
6118;DHT22;3089;48.202;11.510;2024-02-23T08:39:55;6.60;99.90
6118;DHT22;3089;48.202;11.510;2024-02-23T08:42:23;6.70;99.90
6118;DHT22;3089;48.202;11.510;2024-02-23T08:44:51;6.70;99.90
6118;DHT22;3089;48.202;11.510;2024-02-23T08:47:22;6.70;99.90
6118;DHT22;3089;48.202;11.510;2024-02-23T08:49:51;6.60;99.90
6118;DHT22;3089;48.202;11.510;2024-02-23T08:52:19;6.60;99.90
6118;DHT22;3089;48.202;11.510;2024-02-23T08:54:47;6.40;99.90
6118;DHT22;3089;48.202;11.510;2024-02-23T08:57:15;6.60;99.90
6118;DHT22;3089;48.202;11.510;2024-02-23T08:59:46;6.70;99.90
6118;DHT22;3089;48.202;11.510;2024-02-23T09:02:14;6.70;99.90
6118;DHT22;3089;48.202;11.510;2024-02-23T09:04:43;6.70;99.90
6118;DHT22;3089;48.202;11.510;2024-02-23T09:07:12;6.70;99.90
6118;DHT22;3089;48.202;11.510;2024-02-23T09:09:41;6.70;99.90
6118;DHT22;3089;48.202;11.510;2024-02-23T09:12:09;6.60;99.90
6118;DHT22;3089;48.202;11.510;2024-02-23T09:14:38;6.70;99.90
6118;DHT22;3089;48.202;11.510;2024-02-23T09:17:08;6.60;99.90
6118;DHT22;3089;48.202;11.510;2024-02-23T09:19:36;6.60;99.90
6118;DHT22;3089;48.202;11.510;2024-02-23T09:22:06;6.60;99.90
6118;DHT22;3089;48.202;11.510;2024-02-23T09:24:34;6.60;99.90
6118;DHT22;3089;48.202;11.510;2024-02-23T09:27:02;6.60;99.90
6118;DHT22;3089;48.202;11.510;2024-02-23T09:29:30;6.70;99.90
6118;DHT22;3089;48.202;11.510;2024-02-23T09:31:59;6.60;99.90
6118;DHT22;3089;48.202;11.510;2024-02-23T09:34:27;6.60;99.90
6118;DHT22;3089;48.202;11.510;2024-02-23T09:36:56;6.60;99.90
6118;DHT22;3089;48.202;11.510;2024-02-23T09:39:25;6.60;99.90
6118;DHT22;3089;48.202;11.510;2024-02-23T09:41:57;6.50;99.90
6118;DHT22;3089;48.202;11.510;2024-02-23T09:44:27;6.60;99.90
6118;DHT22;3089;48.202;11.510;2024-02-23T09:47:00;6.60;99.90
6118;DHT22;3089;48.202;11.510;2024-02-23T09:49:36;6.60;99.90
6118;DHT22;3089;48.202;11.510;2024-02-23T09:52:07;6.60;99.90
6118;DHT22;3089;48.202;11.510;2024-02-23T09:54:38;6.70;99.90
6118;DHT22;3089;48.202;11.510;2024-02-23T09:57:07;6.60;99.90
6118;DHT22;3089;48.202;11.510;2024-02-23T09:59:37;6.60;99.90
6118;DHT22;3089;48.202;11.510;2024-02-23T10:02:07;6.50;99.90
6118;DHT22;3089;48.202;11.510;2024-02-23T10:04:38;6.50;99.90
6118;DHT22;3089;48.202;11.510;2024-02-23T10:07:07;6.60;99.90
6118;DHT22;3089;48.202;11.510;2024-02-23T10:09:37;6.60;99.90
6118;DHT22;3089;48.202;11.510;2024-02-23T10:12:06;6.70;99.90
6118;DHT22;3089;48.202;11.510;2024-02-23T10:14:34;6.70;99.90
6118;DHT22;3089;48.202;11.510;2024-02-23T10:17:02;6.70;99.90
6118;DHT22;3089;48.202;11.510;2024-02-23T10:19:30;6.70;99.90
6118;DHT22;3089;48.202;11.510;2024-02-23T10:21:59;6.70;99.90
6118;DHT22;3089;48.202;11.510;2024-02-23T10:24:27;6.60;99.90
6118;DHT22;3089;48.202;11.510;2024-02-23T10:26:57;6.70;99.90
6118;DHT22;3089;48.202;11.510;2024-02-23T10:29:25;6.60;99.90
6118;DHT22;3089;48.202;11.510;2024-02-23T10:31:56;6.40;99.90
6118;DHT22;3089;48.202;11.510;2024-02-23T10:34:27;6.40;99.90
6118;DHT22;3089;48.202;11.510;2024-02-23T10:36:57;6.60;99.90
6118;DHT22;3089;48.202;11.510;2024-02-23T10:39:28;6.60;99.90
6118;DHT22;3089;48.202;11.510;2024-02-23T10:42:03;6.60;99.90
6118;DHT22;3089;48.202;11.510;2024-02-23T10:44:31;6.60;99.90
6118;DHT22;3089;48.202;11.510;2024-02-23T10:47:00;6.60;99.90
6118;DHT22;3089;48.202;11.510;2024-02-23T10:49:30;6.70;99.90
6118;DHT22;3089;48.202;11.510;2024-02-23T10:51:58;6.80;99.90
6118;DHT22;3089;48.202;11.510;2024-02-23T10:54:27;6.80;99.90
6118;DHT22;3089;48.202;11.510;2024-02-23T10:56:55;6.80;99.90
6118;DHT22;3089;48.202;11.510;2024-02-23T10:59:25;6.80;99.90
6118;DHT22;3089;48.202;11.510;2024-02-23T11:01:54;6.80;99.90
6118;DHT22;3089;48.202;11.510;2024-02-23T11:04:25;6.80;99.90
6118;DHT22;3089;48.202;11.510;2024-02-23T11:06:54;6.80;99.90
6118;DHT22;3089;48.202;11.510;2024-02-23T11:09:25;6.90;99.90
6118;DHT22;3089;48.202;11.510;2024-02-23T11:11:55;7.20;99.90
6118;DHT22;3089;48.202;11.510;2024-02-23T11:14:32;7.50;99.90
6118;DHT22;3089;48.202;11.510;2024-02-23T11:17:00;7.60;99.90
6118;DHT22;3089;48.202;11.510;2024-02-23T11:19:36;7.60;99.90
6118;DHT22;3089;48.202;11.510;2024-02-23T11:22:05;7.80;99.90
6118;DHT22;3089;48.202;11.510;2024-02-23T11:24:49;8.00;99.90
6118;DHT22;3089;48.202;11.510;2024-02-23T11:27:24;8.30;99.90
6118;DHT22;3089;48.202;11.510;2024-02-23T11:30:03;8.40;99.90
6118;DHT22;3089;48.202;11.510;2024-02-23T11:32:37;7.90;99.90
6118;DHT22;3089;48.202;11.510;2024-02-23T11:35:09;8.10;99.90
6118;DHT22;3089;48.202;11.510;2024-02-23T11:37:47;8.30;99.90
6118;DHT22;3089;48.202;11.510;2024-02-23T11:40:17;8.40;99.90
6118;DHT22;3089;48.202;11.510;2024-02-23T11:42:46;8.40;99.90
6118;DHT22;3089;48.202;11.510;2024-02-23T11:45:16;8.60;99.90
6118;DHT22;3089;48.202;11.510;2024-02-23T11:47:44;8.50;99.90
6118;DHT22;3089;48.202;11.510;2024-02-23T11:50:13;8.50;99.90
6118;DHT22;3089;48.202;11.510;2024-02-23T11:52:42;8.80;99.90
6118;DHT22;3089;48.202;11.510;2024-02-23T11:55:10;8.50;99.90
6118;DHT22;3089;48.202;11.510;2024-02-23T11:57:38;8.50;99.90
6118;DHT22;3089;48.202;11.510;2024-02-23T12:00:14;8.60;99.90
6118;DHT22;3089;48.202;11.510;2024-02-23T12:02:44;8.50;99.90
6118;DHT22;3089;48.202;11.510;2024-02-23T12:05:15;8.70;99.90
6118;DHT22;3089;48.202;11.510;2024-02-23T12:07:43;8.70;99.90
6118;DHT22;3089;48.202;11.510;2024-02-23T12:10:14;8.70;99.90
6118;DHT22;3089;48.202;11.510;2024-02-23T12:12:42;8.20;99.90
6118;DHT22;3089;48.202;11.510;2024-02-23T12:15:10;8.80;99.90
6118;DHT22;3089;48.202;11.510;2024-02-23T12:17:48;8.70;99.90
6118;DHT22;3089;48.202;11.510;2024-02-23T12:20:16;8.20;99.90
6118;DHT22;3089;48.202;11.510;2024-02-23T12:22:45;8.20;99.90
6118;DHT22;3089;48.202;11.510;2024-02-23T12:25:14;8.20;99.90
6118;DHT22;3089;48.202;11.510;2024-02-23T12:27:43;8.60;99.90
6118;DHT22;3089;48.202;11.510;2024-02-23T12:30:13;8.20;99.90
6118;DHT22;3089;48.202;11.510;2024-02-23T12:32:42;7.80;99.90
6118;DHT22;3089;48.202;11.510;2024-02-23T12:35:12;7.70;99.90
6118;DHT22;3089;48.202;11.510;2024-02-23T12:37:40;8.20;99.90
6118;DHT22;3089;48.202;11.510;2024-02-23T12:40:11;7.80;99.90
6118;DHT22;3089;48.202;11.510;2024-02-23T12:42:39;8.40;99.90
6118;DHT22;3089;48.202;11.510;2024-02-23T12:45:08;8.60;99.90
6118;DHT22;3089;48.202;11.510;2024-02-23T12:47:36;8.50;99.90
6118;DHT22;3089;48.202;11.510;2024-02-23T12:50:06;8.60;99.90
6118;DHT22;3089;48.202;11.510;2024-02-23T12:52:38;7.50;99.90
6118;DHT22;3089;48.202;11.510;2024-02-23T12:55:06;8.00;99.90
6118;DHT22;3089;48.202;11.510;2024-02-23T12:57:34;8.00;99.90
6118;DHT22;3089;48.202;11.510;2024-02-23T13:00:03;8.10;99.90
6118;DHT22;3089;48.202;11.510;2024-02-23T13:02:32;8.50;99.90
6118;DHT22;3089;48.202;11.510;2024-02-23T13:05:00;8.60;99.90
6118;DHT22;3089;48.202;11.510;2024-02-23T13:07:28;8.40;99.90
6118;DHT22;3089;48.202;11.510;2024-02-23T13:09:59;8.50;99.90
6118;DHT22;3089;48.202;11.510;2024-02-23T13:12:26;8.40;99.90
6118;DHT22;3089;48.202;11.510;2024-02-23T13:14:55;8.30;99.90
6118;DHT22;3089;48.202;11.510;2024-02-23T13:17:23;8.00;99.90
6118;DHT22;3089;48.202;11.510;2024-02-23T13:19:51;8.40;99.90
6118;DHT22;3089;48.202;11.510;2024-02-23T13:22:34;8.50;99.90
6118;DHT22;3089;48.202;11.510;2024-02-23T13:25:04;8.40;99.90
6118;DHT22;3089;48.202;11.510;2024-02-23T13:27:32;8.30;99.90
6118;DHT22;3089;48.202;11.510;2024-02-23T13:30:02;8.40;99.90
6118;DHT22;3089;48.202;11.510;2024-02-23T13:32:30;8.20;99.90
6118;DHT22;3089;48.202;11.510;2024-02-23T13:34:58;8.40;99.90
6118;DHT22;3089;48.202;11.510;2024-02-23T13:37:30;8.20;99.90
6118;DHT22;3089;48.202;11.510;2024-02-23T13:39:58;8.20;99.90
6118;DHT22;3089;48.202;11.510;2024-02-23T13:42:28;8.30;99.90
6118;DHT22;3089;48.202;11.510;2024-02-23T13:44:56;7.90;99.90
6118;DHT22;3089;48.202;11.510;2024-02-23T13:47:26;7.60;99.90
6118;DHT22;3089;48.202;11.510;2024-02-23T13:49:54;7.60;99.90
6118;DHT22;3089;48.202;11.510;2024-02-23T13:52:22;7.60;99.90
6118;DHT22;3089;48.202;11.510;2024-02-23T13:54:50;8.20;99.90
6118;DHT22;3089;48.202;11.510;2024-02-23T13:57:18;8.00;99.90
6118;DHT22;3089;48.202;11.510;2024-02-23T13:59:48;8.00;99.90
6118;DHT22;3089;48.202;11.510;2024-02-23T14:02:16;7.60;99.90
6118;DHT22;3089;48.202;11.510;2024-02-23T14:04:45;7.30;99.90
6118;DHT22;3089;48.202;11.510;2024-02-23T14:07:14;7.30;99.90
6118;DHT22;3089;48.202;11.510;2024-02-23T14:09:42;6.80;99.90
6118;DHT22;3089;48.202;11.510;2024-02-23T14:12:10;7.20;99.90
6118;DHT22;3089;48.202;11.510;2024-02-23T14:14:38;7.10;99.90
6118;DHT22;3089;48.202;11.510;2024-02-23T14:17:07;7.80;99.90
6118;DHT22;3089;48.202;11.510;2024-02-23T14:19:36;7.40;99.90
6118;DHT22;3089;48.202;11.510;2024-02-23T14:22:05;7.80;99.90
6118;DHT22;3089;48.202;11.510;2024-02-23T14:24:33;8.20;99.90
6118;DHT22;3089;48.202;11.510;2024-02-23T14:27:01;8.10;99.90
6118;DHT22;3089;48.202;11.510;2024-02-23T14:29:29;7.80;99.90
6118;DHT22;3089;48.202;11.510;2024-02-23T14:31:59;7.50;99.90
6118;DHT22;3089;48.202;11.510;2024-02-23T14:34:30;6.80;99.90
6118;DHT22;3089;48.202;11.510;2024-02-23T14:37:00;6.70;99.90
6118;DHT22;3089;48.202;11.510;2024-02-23T14:39:28;6.50;99.90
6118;DHT22;3089;48.202;11.510;2024-02-23T14:41:56;6.70;99.90
6118;DHT22;3089;48.202;11.510;2024-02-23T14:44:24;6.70;99.90
6118;DHT22;3089;48.202;11.510;2024-02-23T14:46:52;6.70;99.90
6118;DHT22;3089;48.202;11.510;2024-02-23T14:49:20;7.40;99.90
6118;DHT22;3089;48.202;11.510;2024-02-23T14:51:50;7.20;99.90
6118;DHT22;3089;48.202;11.510;2024-02-23T14:54:18;7.60;99.90
6118;DHT22;3089;48.202;11.510;2024-02-23T14:56:46;7.70;99.90
6118;DHT22;3089;48.202;11.510;2024-02-23T14:59:14;7.10;99.90
6118;DHT22;3089;48.202;11.510;2024-02-23T15:01:42;6.50;99.90
6118;DHT22;3089;48.202;11.510;2024-02-23T15:04:10;6.30;99.90
6118;DHT22;3089;48.202;11.510;2024-02-23T15:06:40;6.20;99.90
6118;DHT22;3089;48.202;11.510;2024-02-23T15:09:10;6.50;99.90
6118;DHT22;3089;48.202;11.510;2024-02-23T15:11:39;6.70;99.90
6118;DHT22;3089;48.202;11.510;2024-02-23T15:14:07;6.90;99.90
6118;DHT22;3089;48.202;11.510;2024-02-23T15:16:36;6.40;99.90
6118;DHT22;3089;48.202;11.510;2024-02-23T15:19:03;6.10;99.90
6118;DHT22;3089;48.202;11.510;2024-02-23T15:21:35;6.70;99.90
6118;DHT22;3089;48.202;11.510;2024-02-23T15:24:07;6.90;99.90
6118;DHT22;3089;48.202;11.510;2024-02-23T15:26:36;6.90;99.90
6118;DHT22;3089;48.202;11.510;2024-02-23T15:29:04;6.70;99.90
6118;DHT22;3089;48.202;11.510;2024-02-23T15:31:32;6.60;99.90
6118;DHT22;3089;48.202;11.510;2024-02-23T15:34:03;6.00;99.90
6118;DHT22;3089;48.202;11.510;2024-02-23T15:36:31;6.30;99.90
6118;DHT22;3089;48.202;11.510;2024-02-23T15:38:59;6.00;99.90
6118;DHT22;3089;48.202;11.510;2024-02-23T15:41:32;6.30;99.90
6118;DHT22;3089;48.202;11.510;2024-02-23T15:44:02;6.30;99.90
6118;DHT22;3089;48.202;11.510;2024-02-23T15:46:32;6.10;99.90
6118;DHT22;3089;48.202;11.510;2024-02-23T15:49:00;5.80;99.90
6118;DHT22;3089;48.202;11.510;2024-02-23T15:51:48;6.00;99.90
6118;DHT22;3089;48.202;11.510;2024-02-23T15:54:24;5.90;99.90
6118;DHT22;3089;48.202;11.510;2024-02-23T15:56:54;6.10;99.90
6118;DHT22;3089;48.202;11.510;2024-02-23T15:59:23;6.10;99.90
6118;DHT22;3089;48.202;11.510;2024-02-23T16:01:53;6.20;99.90
6118;DHT22;3089;48.202;11.510;2024-02-23T16:04:21;6.10;99.90
6118;DHT22;3089;48.202;11.510;2024-02-23T16:06:50;6.50;99.90
6118;DHT22;3089;48.202;11.510;2024-02-23T16:09:18;5.60;99.90
6118;DHT22;3089;48.202;11.510;2024-02-23T16:11:46;5.90;99.90
6118;DHT22;3089;48.202;11.510;2024-02-23T16:14:15;6.40;99.90